createdAt,value
2023-02-14T00:00:50.090Z,89.83
2023-02-14T00:03:16.822Z,89.70
2023-02-14T00:05:43.429Z,89.92
2023-02-14T00:08:10.289Z,89.92
2023-02-14T00:10:36.885Z,90.04
2023-02-14T00:13:04.681Z,89.89
2023-02-14T00:15:31.319Z,89.93
2023-02-14T00:18:00.923Z,90.31
2023-02-14T00:20:28.463Z,90.23
2023-02-14T00:22:55.190Z,90.37
2023-02-14T00:25:21.766Z,90.07
2023-02-14T00:27:48.387Z,89.65
2023-02-14T00:30:15.365Z,89.81
2023-02-14T00:32:43.052Z,90.37
2023-02-14T00:35:10.702Z,89.91
2023-02-14T00:37:37.723Z,89.71
2023-02-14T00:40:06.333Z,90.34
2023-02-14T00:42:33.117Z,90.25
2023-02-14T00:44:59.671Z,90.13
2023-02-14T00:47:26.353Z,90.14
2023-02-14T00:49:52.940Z,90.43
2023-02-14T00:52:19.514Z,90.39
2023-02-14T00:54:46.176Z,90.39
2023-02-14T00:57:12.768Z,90.03
2023-02-14T00:59:39.341Z,89.88
2023-02-14T01:02:05.938Z,89.93
2023-02-14T01:04:32.599Z,89.74
2023-02-14T01:06:59.116Z,90.36
2023-02-14T01:09:25.642Z,89.83
2023-02-14T01:11:52.177Z,90.09
2023-02-14T01:14:18.701Z,90.66
2023-02-14T01:16:45.440Z,90.37
2023-02-14T01:19:12.074Z,90.38
2023-02-14T01:21:38.616Z,91.10
2023-02-14T01:24:07.671Z,90.55
2023-02-14T01:26:35.185Z,90.63
2023-02-14T01:29:03.149Z,91.17
2023-02-14T01:31:32.574Z,90.46
2023-02-14T01:34:00.311Z,90.62
2023-02-14T01:36:38.867Z,91.31
2023-02-14T01:39:13.483Z,91.33
2023-02-14T01:41:43.178Z,91.00
2023-02-14T01:44:15.368Z,91.81
2023-02-14T01:46:43.841Z,91.04
2023-02-14T01:49:16.401Z,91.74
2023-02-14T01:51:53.110Z,91.52
2023-02-14T01:54:25.983Z,91.67
2023-02-14T01:57:00.310Z,92.32
2023-02-14T01:59:34.550Z,92.51
2023-02-14T02:02:01.287Z,92.77
2023-02-14T02:04:41.119Z,92.30
2023-02-14T02:07:14.931Z,92.48
2023-02-14T02:09:51.298Z,92.26
2023-02-14T02:12:17.965Z,91.95
2023-02-14T02:14:45.743Z,92.35
2023-02-14T02:17:12.276Z,92.33
2023-02-14T02:20:20.631Z,92.29
2023-02-14T02:22:56.282Z,92.28
2023-02-14T02:25:37.956Z,91.93
2023-02-14T02:28:43.463Z,92.08
2023-02-14T02:31:47.930Z,92.62
2023-02-14T02:34:52.278Z,93.11
2023-02-14T02:37:18.712Z,92.49
2023-02-14T02:39:45.243Z,92.58
2023-02-14T02:42:26.856Z,92.94
2023-02-14T02:45:11.099Z,92.62
2023-02-14T02:47:45.995Z,92.99
2023-02-14T02:51:04.426Z,93.54
2023-02-14T02:53:58.034Z,93.38
2023-02-14T02:56:46.415Z,92.99
2023-02-14T02:59:21.850Z,92.76
2023-02-14T03:01:56.794Z,92.64
2023-02-14T03:04:46.331Z,92.71
2023-02-14T03:07:32.061Z,92.84
2023-02-14T03:10:01.475Z,93.16
2023-02-14T03:12:33.811Z,92.79
2023-02-14T03:15:22.636Z,92.87
2023-02-14T03:18:30.007Z,92.87
2023-02-14T03:21:35.331Z,93.15
2023-02-14T03:24:22.485Z,93.69
2023-02-14T03:26:58.090Z,93.33
2023-02-14T03:29:27.597Z,93.37
2023-02-14T03:32:17.500Z,92.83
2023-02-14T03:34:46.810Z,93.17
2023-02-14T03:37:39.377Z,93.21
2023-02-14T03:40:27.259Z,93.50
2023-02-14T03:43:07.928Z,93.09
2023-02-14T03:45:46.013Z,93.14
2023-02-14T03:48:16.466Z,93.03
2023-02-14T03:50:49.685Z,93.56
2023-02-14T03:53:22.850Z,93.38
2023-02-14T03:55:57.955Z,93.53
2023-02-14T03:58:30.222Z,92.97
2023-02-14T04:01:05.442Z,93.72
2023-02-14T04:03:37.496Z,93.52
2023-02-14T04:06:04.356Z,93.66
2023-02-14T04:08:30.956Z,93.98
2023-02-14T04:11:01.798Z,93.57
2023-02-14T04:13:28.821Z,93.94
2023-02-14T04:15:55.385Z,93.98
2023-02-14T04:18:40.441Z,93.84
2023-02-14T04:21:08.194Z,93.62
2023-02-14T04:23:34.793Z,93.65
2023-02-14T04:26:03.579Z,93.38
2023-02-14T04:28:30.871Z,93.67
2023-02-14T04:31:01.008Z,93.83
2023-02-14T04:33:27.900Z,93.87
2023-02-14T04:35:54.864Z,94.00
2023-02-14T04:38:21.561Z,92.70
2023-02-14T04:40:50.017Z,93.17
2023-02-14T04:43:16.654Z,93.37
2023-02-14T04:45:43.215Z,94.07
2023-02-14T04:48:10.104Z,93.59
2023-02-14T04:50:36.690Z,94.08
2023-02-14T04:53:03.274Z,93.77
2023-02-14T04:55:30.165Z,93.62
2023-02-14T04:57:56.803Z,93.71
2023-02-14T05:00:24.114Z,93.14
2023-02-14T05:02:50.670Z,93.48
2023-02-14T05:05:17.279Z,93.37
2023-02-14T05:07:47.624Z,93.97
2023-02-14T05:10:15.297Z,92.74
2023-02-14T05:12:42.032Z,93.08
2023-02-14T05:15:09.540Z,92.69
2023-02-14T05:17:36.281Z,92.93
2023-02-14T05:20:06.705Z,92.37
2023-02-14T05:22:33.337Z,93.24
2023-02-14T05:24:59.903Z,93.37
2023-02-14T05:27:26.422Z,93.46
2023-02-14T05:29:53.106Z,93.06
2023-02-14T05:32:19.658Z,92.98
2023-02-14T05:34:46.234Z,93.04
2023-02-14T05:37:12.808Z,92.52
2023-02-14T05:39:39.456Z,92.50
2023-02-14T05:42:06.015Z,92.61
2023-02-14T05:44:32.584Z,92.50
2023-02-14T05:46:59.153Z,93.24
2023-02-14T05:49:25.757Z,92.45
2023-02-14T05:51:52.315Z,93.02
2023-02-14T05:54:18.901Z,93.19
2023-02-14T05:56:45.502Z,92.65
2023-02-14T05:59:14.129Z,92.29
2023-02-14T06:01:40.877Z,92.87
2023-02-14T06:04:07.522Z,92.46
2023-02-14T06:06:36.334Z,92.53
2023-02-14T06:09:03.382Z,93.07
2023-02-14T06:11:30.195Z,93.02
2023-02-14T06:13:56.851Z,92.64
2023-02-14T06:16:23.580Z,93.15
2023-02-14T06:18:50.146Z,92.23
2023-02-14T06:21:16.732Z,92.84
2023-02-14T06:23:43.298Z,92.62
2023-02-14T06:26:09.943Z,92.33
2023-02-14T06:28:36.532Z,92.82
2023-02-14T06:31:04.883Z,92.65
2023-02-14T06:33:31.703Z,93.10
2023-02-14T06:35:58.327Z,93.37
2023-02-14T06:38:25.040Z,92.86
2023-02-14T06:40:51.566Z,93.43
2023-02-14T06:43:18.085Z,92.97
2023-02-14T06:45:46.583Z,92.88
2023-02-14T06:48:13.161Z,93.67
2023-02-14T06:50:39.833Z,93.17
2023-02-14T06:53:06.449Z,93.58
2023-02-14T06:55:33.086Z,94.01
2023-02-14T06:57:59.677Z,94.04
2023-02-14T07:00:26.296Z,93.87
2023-02-14T07:02:52.950Z,94.50
2023-02-14T07:05:19.634Z,94.16
2023-02-14T07:07:46.511Z,93.48
2023-02-14T07:10:13.433Z,94.16
2023-02-14T07:12:40.390Z,93.29
2023-02-14T07:15:09.254Z,93.49
2023-02-14T07:17:35.875Z,93.42
2023-02-14T07:20:03.562Z,94.31
2023-02-14T07:22:30.475Z,93.33
2023-02-14T07:24:57.336Z,93.86
2023-02-14T07:27:23.937Z,94.03
2023-02-14T07:29:50.645Z,94.21
2023-02-14T07:32:17.481Z,93.37
2023-02-14T07:34:44.641Z,94.03
2023-02-14T07:37:11.346Z,94.48
2023-02-14T07:39:37.904Z,94.74
2023-02-14T07:42:04.521Z,94.66
2023-02-14T07:44:31.119Z,95.48
2023-02-14T07:46:57.641Z,94.71
2023-02-14T07:49:24.307Z,95.02
2023-02-14T07:51:50.851Z,94.09
2023-02-14T07:54:18.686Z,94.31
2023-02-14T07:56:46.156Z,94.84
2023-02-14T07:59:12.729Z,95.15
2023-02-14T08:01:48.617Z,94.60
2023-02-14T08:04:15.173Z,94.75
2023-02-14T08:06:42.885Z,94.44
2023-02-14T08:09:10.642Z,94.63
2023-02-14T08:11:56.163Z,94.88
2023-02-14T08:14:22.985Z,94.85
2023-02-14T08:16:49.824Z,94.47
2023-02-14T08:19:16.332Z,94.76
2023-02-14T08:21:43.333Z,94.17
2023-02-14T08:24:09.926Z,94.10
2023-02-14T08:26:36.534Z,94.21
2023-02-14T08:29:03.138Z,94.37
2023-02-14T08:31:36.496Z,94.20
2023-02-14T08:34:07.148Z,94.43
2023-02-14T08:36:34.857Z,94.41
2023-02-14T08:39:04.036Z,94.18
2023-02-14T08:41:30.829Z,94.04
2023-02-14T08:43:57.486Z,94.58
2023-02-14T08:46:24.091Z,94.23
2023-02-14T08:48:52.223Z,94.06
2023-02-14T08:51:19.296Z,94.00
2023-02-14T08:53:46.336Z,94.38
2023-02-14T08:56:17.839Z,94.66
2023-02-14T08:58:44.394Z,95.07
2023-02-14T09:01:13.995Z,94.34
2023-02-14T09:03:40.676Z,94.35
2023-02-14T09:06:09.980Z,95.25
2023-02-14T09:08:38.124Z,93.93
2023-02-14T09:11:14.356Z,95.75
2023-02-14T09:13:42.930Z,95.38
2023-02-14T09:16:11.630Z,94.07
2023-02-14T09:18:38.827Z,95.04
2023-02-14T09:21:10.503Z,95.74
2023-02-14T09:23:39.209Z,94.94
2023-02-14T09:26:09.124Z,93.86
2023-02-14T09:28:46.398Z,93.32
2023-02-14T09:31:13.168Z,92.01
2023-02-14T09:33:43.625Z,90.54
2023-02-14T09:36:15.842Z,89.97
2023-02-14T09:38:44.818Z,88.57
2023-02-14T09:41:49.479Z,88.67
2023-02-14T09:44:35.152Z,87.37
2023-02-14T09:47:16.210Z,87.30
2023-02-14T09:49:43.983Z,86.04
2023-02-14T09:52:16.372Z,84.85
2023-02-14T09:54:49.221Z,86.75
2023-02-14T09:57:38.933Z,85.09
2023-02-14T10:00:24.082Z,84.04
2023-02-14T10:03:00.405Z,84.38
2023-02-14T10:05:32.250Z,83.97
2023-02-14T10:08:36.112Z,83.93
2023-02-14T10:11:10.081Z,82.65
2023-02-14T10:13:50.032Z,82.68
2023-02-14T10:16:54.240Z,82.97
2023-02-14T10:19:38.311Z,81.36
2023-02-14T10:22:14.189Z,81.79
2023-02-14T10:24:50.996Z,81.45
2023-02-14T10:27:32.681Z,80.59
2023-02-14T10:29:59.476Z,80.13
2023-02-14T10:32:45.121Z,80.36
2023-02-14T10:35:38.697Z,80.36
2023-02-14T10:38:28.638Z,79.55
2023-02-14T10:41:31.938Z,79.26
2023-02-14T10:44:40.783Z,78.69
2023-02-14T10:47:18.133Z,78.84
2023-02-14T10:50:03.240Z,79.37
2023-02-14T10:52:40.182Z,78.51
2023-02-14T10:55:49.257Z,77.92
2023-02-14T10:58:21.144Z,77.73
2023-02-14T11:01:03.457Z,79.07
2023-02-14T11:03:30.494Z,75.86
2023-02-14T11:05:57.277Z,75.82
2023-02-14T11:08:38.002Z,76.31
2023-02-14T11:11:29.216Z,75.26
2023-02-14T11:13:56.090Z,75.41
2023-02-14T11:16:35.338Z,74.51
2023-02-14T11:19:36.077Z,74.69
2023-02-14T11:22:04.312Z,74.09
2023-02-14T11:24:41.426Z,72.82
2023-02-14T11:27:19.410Z,75.00
2023-02-14T11:29:52.213Z,74.94
2023-02-14T11:32:34.308Z,73.77
2023-02-14T11:35:20.650Z,72.75
2023-02-14T11:37:53.561Z,72.06
2023-02-14T11:40:37.286Z,73.40
2023-02-14T11:43:15.675Z,72.92
2023-02-14T11:45:44.462Z,71.64
2023-02-14T11:48:37.655Z,72.71
2023-02-14T11:51:14.959Z,71.83
2023-02-14T11:53:53.869Z,72.45
2023-02-14T11:56:22.113Z,72.99
2023-02-14T11:59:03.721Z,72.72
2023-02-14T12:01:34.524Z,73.52
2023-02-14T12:04:07.484Z,72.68
2023-02-14T12:06:41.074Z,74.04
2023-02-14T12:09:29.486Z,74.66
2023-02-14T12:12:14.721Z,72.94
2023-02-14T12:14:41.853Z,73.86
2023-02-14T12:17:11.466Z,74.02
2023-02-14T12:20:08.931Z,74.23
2023-02-14T12:22:47.451Z,74.73
2023-02-14T12:25:27.371Z,73.01
2023-02-14T12:28:03.557Z,75.42
2023-02-14T12:30:35.177Z,76.62
2023-02-14T12:33:06.641Z,76.40
2023-02-14T12:35:54.917Z,74.69
2023-02-14T12:38:43.423Z,75.56
2023-02-14T12:41:42.926Z,73.00
2023-02-14T12:44:35.654Z,75.75
2023-02-14T12:47:16.531Z,74.65
2023-02-14T12:50:06.166Z,76.79
2023-02-14T12:52:57.246Z,74.46
2023-02-14T12:56:00.342Z,76.37
2023-02-14T12:58:45.049Z,75.04
2023-02-14T13:01:12.162Z,75.97
2023-02-14T13:03:57.956Z,75.29
2023-02-14T13:06:49.587Z,75.25
2023-02-14T13:09:40.474Z,76.07
2023-02-14T13:12:36.396Z,75.70
2023-02-14T13:15:46.716Z,75.99
2023-02-14T13:18:50.835Z,74.60
2023-02-14T13:21:24.372Z,76.51
2023-02-14T13:24:25.511Z,76.12
2023-02-14T13:26:59.775Z,74.73
2023-02-14T13:29:36.142Z,74.29
2023-02-14T13:32:04.544Z,74.38
2023-02-14T13:34:41.568Z,76.55
2023-02-14T13:37:12.820Z,75.44
2023-02-14T13:39:56.809Z,74.88
2023-02-14T13:42:48.167Z,75.48
2023-02-14T13:45:30.536Z,75.01
2023-02-14T13:48:09.974Z,75.57
2023-02-14T13:50:50.210Z,75.56
2023-02-14T13:53:34.708Z,74.96
2023-02-14T13:56:23.369Z,73.63
2023-02-14T13:59:01.046Z,75.24
2023-02-14T14:01:32.275Z,75.21
2023-02-14T14:04:19.777Z,74.90
2023-02-14T14:07:23.288Z,75.31
2023-02-14T14:09:49.958Z,75.12
2023-02-14T14:12:28.769Z,75.63
2023-02-14T14:15:07.990Z,75.45
2023-02-14T14:17:36.446Z,76.60
2023-02-14T14:20:25.769Z,73.48
2023-02-14T14:22:58.850Z,74.67
2023-02-14T14:25:39.491Z,75.39
2023-02-14T14:28:26.591Z,76.87
2023-02-14T14:30:53.747Z,75.80
2023-02-14T14:33:33.157Z,74.53
2023-02-14T14:36:07.675Z,74.91
2023-02-14T14:38:45.643Z,75.69
2023-02-14T14:41:12.274Z,75.52
2023-02-14T14:43:40.518Z,73.91
2023-02-14T14:46:15.745Z,75.00
2023-02-14T14:48:52.110Z,75.92
2023-02-14T14:51:33.332Z,74.17
2023-02-14T14:54:06.969Z,75.59
2023-02-14T14:56:57.128Z,76.73
2023-02-14T14:59:30.816Z,74.50
2023-02-14T15:01:57.726Z,74.86
2023-02-14T15:04:35.000Z,76.11
2023-02-14T15:07:34.633Z,74.18
2023-02-14T15:10:01.953Z,74.66
2023-02-14T15:12:48.481Z,74.96
2023-02-14T15:15:18.888Z,74.64
2023-02-14T15:17:47.136Z,76.10
2023-02-14T15:20:21.150Z,75.12
2023-02-14T15:22:51.712Z,75.79
2023-02-14T15:25:44.549Z,75.02
2023-02-14T15:28:26.122Z,73.90
2023-02-14T15:30:59.202Z,74.49
2023-02-14T15:33:26.904Z,74.58
2023-02-14T15:35:54.251Z,75.54
2023-02-14T15:38:23.848Z,74.86
2023-02-14T15:40:51.915Z,75.09
2023-02-14T15:43:18.554Z,76.33
2023-02-14T15:45:50.300Z,75.55
2023-02-14T15:48:28.556Z,75.97
2023-02-14T15:50:59.136Z,76.12
2023-02-14T15:53:35.024Z,75.58
2023-02-14T15:56:06.246Z,75.60
2023-02-14T15:58:36.159Z,76.09
2023-02-14T16:01:04.140Z,75.45
2023-02-14T16:03:38.774Z,75.67
2023-02-14T16:06:05.651Z,75.19
2023-02-14T16:08:41.051Z,75.71
2023-02-14T16:11:32.514Z,75.56
2023-02-14T16:14:19.278Z,75.52
2023-02-14T16:16:57.759Z,75.54
2023-02-14T16:19:44.923Z,76.67
2023-02-14T16:22:32.145Z,76.43
2023-02-14T16:24:59.387Z,75.85
2023-02-14T16:27:25.987Z,76.04
2023-02-14T16:29:52.730Z,76.11
2023-02-14T16:32:24.289Z,76.23
2023-02-14T16:34:51.336Z,76.02
2023-02-14T16:37:25.002Z,77.01
2023-02-14T16:39:54.534Z,77.18
2023-02-14T16:42:21.198Z,77.71
2023-02-14T16:44:48.488Z,77.74
2023-02-14T16:47:17.218Z,77.88
2023-02-14T16:49:44.084Z,77.63
2023-02-14T16:52:17.113Z,78.45
2023-02-14T16:54:44.235Z,78.99
2023-02-14T16:57:20.322Z,78.43
2023-02-14T16:59:47.343Z,78.81
2023-02-14T17:02:14.235Z,78.89
2023-02-14T17:04:40.815Z,79.28
2023-02-14T17:07:08.096Z,79.29
2023-02-14T17:09:41.257Z,79.68
2023-02-14T17:12:16.898Z,80.38
2023-02-14T17:14:49.620Z,79.30
2023-02-14T17:17:16.851Z,80.19
2023-02-14T17:19:44.182Z,80.34
2023-02-14T17:22:13.521Z,80.41
2023-02-14T17:24:40.647Z,80.86
2023-02-14T17:27:08.510Z,80.55
2023-02-14T17:29:35.731Z,81.30
2023-02-14T17:32:02.461Z,80.91
2023-02-14T17:34:33.210Z,80.98
2023-02-14T17:36:59.834Z,80.83
2023-02-14T17:39:26.813Z,81.62
2023-02-14T17:41:53.371Z,81.61
2023-02-14T17:44:19.935Z,81.91
2023-02-14T17:46:46.572Z,81.82
2023-02-14T17:49:13.114Z,81.90
2023-02-14T17:51:39.617Z,82.10
2023-02-14T17:54:06.213Z,81.99
2023-02-14T17:56:33.002Z,81.86
2023-02-14T17:58:59.867Z,82.00
2023-02-14T18:01:31.392Z,82.57
2023-02-14T18:03:58.197Z,82.43
2023-02-14T18:06:26.718Z,82.33
2023-02-14T18:08:56.714Z,82.11
2023-02-14T18:11:26.079Z,82.36
2023-02-14T18:13:56.667Z,82.97
2023-02-14T18:16:24.832Z,82.19
2023-02-14T18:18:52.311Z,82.81
2023-02-14T18:21:21.654Z,83.15
2023-02-14T18:23:48.811Z,82.86
2023-02-14T18:26:18.009Z,82.97
2023-02-14T18:28:44.894Z,83.36
2023-02-14T18:31:18.116Z,83.13
2023-02-14T18:33:46.722Z,83.07
2023-02-14T18:36:16.510Z,83.73
2023-02-14T18:38:45.053Z,83.59
2023-02-14T18:41:14.325Z,83.67
2023-02-14T18:43:41.887Z,83.91
2023-02-14T18:46:11.456Z,83.68
2023-02-14T18:48:38.454Z,83.71
2023-02-14T18:51:10.542Z,83.90
2023-02-14T18:53:38.401Z,83.88
2023-02-14T18:56:06.659Z,83.47
2023-02-14T18:58:34.409Z,83.97
2023-02-14T19:01:13.045Z,84.16
2023-02-14T19:03:40.680Z,84.16
2023-02-14T19:06:09.402Z,83.68
2023-02-14T19:08:39.570Z,83.82
2023-02-14T19:11:18.423Z,84.41
2023-02-14T19:13:46.176Z,84.32
2023-02-14T19:16:19.492Z,84.11
2023-02-14T19:18:47.019Z,84.86
2023-02-14T19:21:20.145Z,85.17
2023-02-14T19:23:47.401Z,84.73
2023-02-14T19:26:24.705Z,84.78
2023-02-14T19:28:56.376Z,85.07
2023-02-14T19:31:23.472Z,84.90
2023-02-14T19:33:50.569Z,85.20
2023-02-14T19:36:19.413Z,84.80
2023-02-14T19:38:49.502Z,85.41
2023-02-14T19:41:26.468Z,85.43
2023-02-14T19:43:57.521Z,85.38
2023-02-14T19:46:26.170Z,85.48
2023-02-14T19:48:52.994Z,85.39
2023-02-14T19:51:25.915Z,85.31
2023-02-14T19:53:53.261Z,85.82
2023-02-14T19:56:21.389Z,85.37
2023-02-14T19:58:49.083Z,85.28
2023-02-14T20:01:36.840Z,85.62
2023-02-14T20:04:07.645Z,86.15
2023-02-14T20:06:34.249Z,85.76
2023-02-14T20:09:00.796Z,85.62
2023-02-14T20:11:35.601Z,85.34
2023-02-14T20:14:03.597Z,85.46
2023-02-14T20:16:32.081Z,85.87
2023-02-14T20:19:01.781Z,85.86
2023-02-14T20:21:28.582Z,86.23
2023-02-14T20:24:00.803Z,85.89
2023-02-14T20:26:32.940Z,86.00
2023-02-14T20:29:03.639Z,86.40
2023-02-14T20:31:32.010Z,86.56
2023-02-14T20:33:58.983Z,86.24
2023-02-14T20:36:25.902Z,86.36
2023-02-14T20:39:01.453Z,86.71
2023-02-14T20:41:29.052Z,86.16
2023-02-14T20:44:03.340Z,86.63
2023-02-14T20:46:31.195Z,85.93
2023-02-14T20:48:57.760Z,85.82
2023-02-14T20:51:24.419Z,86.19
2023-02-14T20:53:51.231Z,86.37
2023-02-14T20:56:18.678Z,86.95
2023-02-14T20:58:46.005Z,86.38
2023-02-14T21:01:14.328Z,86.25
2023-02-14T21:03:43.053Z,87.08
2023-02-14T21:06:13.756Z,86.45
2023-02-14T21:08:42.485Z,86.57
2023-02-14T21:11:11.748Z,87.45
2023-02-14T21:13:39.288Z,87.14
2023-02-14T21:16:12.277Z,87.18
2023-02-14T21:18:39.185Z,87.19
2023-02-14T21:21:06.607Z,86.87
2023-02-14T21:23:33.518Z,87.28
2023-02-14T21:26:00.110Z,86.33
2023-02-14T21:28:26.853Z,86.56
2023-02-14T21:31:02.570Z,86.98
2023-02-14T21:33:32.003Z,87.01
2023-02-14T21:36:06.069Z,86.75
2023-02-14T21:38:32.844Z,86.77
2023-02-14T21:41:04.949Z,86.80
2023-02-14T21:43:36.995Z,87.00
2023-02-14T21:46:08.656Z,86.77
2023-02-14T21:48:54.073Z,87.26
2023-02-14T21:51:21.827Z,86.85
2023-02-14T21:53:48.998Z,87.27
2023-02-14T21:56:19.624Z,87.08
2023-02-14T21:58:49.041Z,87.02
2023-02-14T22:01:18.281Z,86.93
2023-02-14T22:03:45.221Z,87.05
2023-02-14T22:06:13.228Z,87.50
2023-02-14T22:08:40.413Z,87.48
2023-02-14T22:11:09.604Z,87.51
2023-02-14T22:13:36.349Z,87.00
2023-02-14T22:16:05.629Z,87.26
2023-02-14T22:18:32.638Z,87.39
2023-02-14T22:21:07.211Z,87.76
2023-02-14T22:23:34.267Z,87.19
2023-02-14T22:26:19.310Z,87.69
2023-02-14T22:28:48.388Z,87.62
2023-02-14T22:31:17.653Z,87.59
2023-02-14T22:33:44.855Z,87.32
2023-02-14T22:36:11.426Z,87.71
2023-02-14T22:38:38.243Z,87.92
2023-02-14T22:41:09.368Z,87.24
2023-02-14T22:43:37.528Z,87.53
2023-02-14T22:46:13.298Z,87.91
2023-02-14T22:48:40.534Z,87.25
2023-02-14T22:51:17.813Z,87.67
2023-02-14T22:53:44.409Z,87.66
2023-02-14T22:56:33.052Z,87.47
2023-02-14T22:59:05.325Z,87.69
2023-02-14T23:01:34.359Z,87.68
2023-02-14T23:04:03.276Z,87.32
2023-02-14T23:06:32.411Z,87.80
2023-02-14T23:09:00.548Z,87.48
2023-02-14T23:11:29.608Z,87.40
2023-02-14T23:14:14.953Z,87.55
2023-02-14T23:17:00.808Z,87.66
2023-02-14T23:19:49.057Z,87.75
2023-02-14T23:22:25.210Z,87.79
2023-02-14T23:24:53.806Z,87.46
2023-02-14T23:27:23.268Z,87.91
2023-02-14T23:29:49.898Z,87.93
2023-02-14T23:32:16.683Z,87.68
2023-02-14T23:34:44.735Z,87.86
2023-02-14T23:37:13.666Z,87.96
2023-02-14T23:39:41.430Z,88.10
2023-02-14T23:42:16.408Z,87.71
2023-02-14T23:44:44.733Z,88.24
2023-02-14T23:47:13.325Z,88.39
2023-02-14T23:49:40.991Z,88.34
2023-02-14T23:52:12.988Z,88.21
2023-02-14T23:54:39.834Z,88.06
2023-02-14T23:57:08.129Z,88.35
2023-02-14T23:59:35.072Z,87.75
